KTUL/TUL METAR and TAF weather

Enter ICAO airport designator
Station Type Date Time Source
KTUL METAR 2020/12/05 05:53 UTC NOAA

KTUL 050553Z 24003KT 10SM CLR 05/M01 A3019 RMK AO2 SLP223 T00501006 10094 20028 401331017 53005


Station Type Date Time Source
KTUL Decoded METAR 2020/12/05 05:53 UTC NOAA

TULSA INTERNATIONAL AIRPORT, OK, United States (KTUL) 36-12N 95-53W 207M
Dec 05, 2020 - 12:53 AM EST / 2020.12.05 0553 UTC
Wind: from the WSW (240 degrees) at 3 MPH (3 KT):0
Visibility: 10 mile(s):0
Sky conditions: clear
Temperature: 41.0 F (5.0 C)
Dew Point: 30.9 F (-0.6 C)
Relative Humidity: 67%
Pressure (altimeter): 30.19 in. Hg (1022 hPa)
Pressure tendency: 0.01 inches (0.5 hPa) higher than three hours ago
ob: KTUL 050553Z 24003KT 10SM CLR 05/M01 A3019 RMK AO2 SLP223 T00501006 10094 20028 401331017 53005
cycle: 6

Station Type Date Time Source
KTUL TAF 2020/12/05 06:22 UTC NOAA

TAF KTUL 050520Z 0506/0606 27004KT P6SM SKC
FM051800 31007KT P6SM SKC
FM060000 35005KT P6SM SCT250

Example: see airport list